Time;durP1;ratioP1;P1;durP2;ratioP2;P2;SDS_P1;SDS_P2;PMS_P1;PMS_P2;Temp;Humidity;BMP_temperature;BMP_pressure;BME280_temperature;BME280_humidity;BME280_pressure;Samples;Min_cycle;Max_cycle;Signal;HPM_P1;HPM_P2
2021/09/14 00:02:17;;;;;;;;;;;13.20;99.90;;;;;;5113503;28;19915;-69
2021/09/14 00:04:43;;;;;;;;;;;13.20;99.90;;;;;;5113646;28;19908;-70
2021/09/14 00:07:08;;;;;;;;;;;13.20;99.90;;;;;;5107068;28;19908;-71
2021/09/14 00:09:34;;;;;;;;;;;13.10;99.90;;;;;;5113435;28;19916;-70
2021/09/14 00:11:59;;;;;;;;;;;13.00;99.90;;;;;;5098299;28;20138;-70
2021/09/14 00:14:25;;;;;;;;;;;13.20;99.90;;;;;;5112743;28;19912;-70
2021/09/14 00:16:50;;;;;;;;;;;13.10;99.90;;;;;;5111946;28;19919;-70
2021/09/14 00:19:16;;;;;;;;;;;13.20;99.90;;;;;;5098543;28;20303;-70
2021/09/14 00:21:42;;;;;;;;;;;13.30;99.90;;;;;;5113069;28;19960;-70
2021/09/14 00:24:08;;;;;;;;;;;13.10;99.90;;;;;;5113259;28;20006;-70
2021/09/14 00:26:33;;;;;;;;;;;13.10;99.90;;;;;;5104614;28;20423;-70
2021/09/14 00:29:00;;;;;;;;;;;13.00;99.90;;;;;;5112811;28;19946;-70
2021/09/14 00:31:26;;;;;;;;;;;13.00;99.90;;;;;;5112876;28;19915;-70
2021/09/14 00:33:51;;;;;;;;;;;13.00;99.90;;;;;;5113079;28;19908;-70
2021/09/14 00:36:17;;;;;;;;;;;13.00;99.90;;;;;;5105411;28;20365;-70
2021/09/14 00:38:42;;;;;;;;;;;12.90;99.90;;;;;;5106233;28;19960;-72
2021/09/14 00:41:08;;;;;;;;;;;13.00;99.90;;;;;;5112760;28;19908;-70
2021/09/14 00:43:34;;;;;;;;;;;13.10;99.90;;;;;;5112814;28;19912;-70
2021/09/14 00:45:59;;;;;;;;;;;13.10;99.90;;;;;;5112478;28;20433;-70
2021/09/14 00:48:25;;;;;;;;;;;13.10;99.90;;;;;;5106555;28;19915;-73
2021/09/14 00:50:50;;;;;;;;;;;13.10;99.90;;;;;;5112618;28;20037;-70
2021/09/14 00:53:16;;;;;;;;;;;12.90;99.90;;;;;;5104846;28;19907;-70
2021/09/14 00:55:42;;;;;;;;;;;12.90;99.90;;;;;;5112033;28;19943;-70
2021/09/14 00:58:07;;;;;;;;;;;13.00;99.90;;;;;;5107603;28;19908;-71
2021/09/14 01:00:33;;;;;;;;;;;12.90;99.90;;;;;;5102883;28;19908;-70
2021/09/14 01:02:59;;;;;;;;;;;12.80;99.90;;;;;;5112026;28;19908;-70
2021/09/14 01:05:25;;;;;;;;;;;12.70;99.90;;;;;;5106268;28;19908;-70
2021/09/14 01:07:51;;;;;;;;;;;12.70;99.90;;;;;;5111887;28;19908;-70
2021/09/14 01:10:16;;;;;;;;;;;12.60;99.90;;;;;;5105089;28;19953;-70
2021/09/14 01:12:42;;;;;;;;;;;12.60;99.90;;;;;;5111911;28;19911;-70
2021/09/14 01:15:08;;;;;;;;;;;12.60;99.90;;;;;;5109856;28;19912;-73
2021/09/14 01:17:33;;;;;;;;;;;12.60;99.90;;;;;;5108313;28;19959;-70
2021/09/14 01:19:59;;;;;;;;;;;12.50;99.90;;;;;;5109046;28;20095;-70
2021/09/14 01:22:28;;;;;;;;;;;12.40;99.90;;;;;;5108815;28;20356;-70
2021/09/14 01:24:53;;;;;;;;;;;12.40;99.90;;;;;;5109356;28;19996;-70
2021/09/14 01:27:19;;;;;;;;;;;12.30;99.90;;;;;;5108619;28;19907;-70
2021/09/14 01:32:28;;;;;;;;;;;12.30;99.90;;;;;;5110434;28;20421;-70
2021/09/14 01:34:54;;;;;;;;;;;12.30;99.90;;;;;;5111951;28;19912;-70
2021/09/14 01:37:19;;;;;;;;;;;12.30;99.90;;;;;;5111767;28;20102;-70
2021/09/14 01:39:45;;;;;;;;;;;12.50;99.90;;;;;;5100097;28;19909;-70
2021/09/14 01:42:10;;;;;;;;;;;12.40;99.90;;;;;;5111344;28;20365;-72
2021/09/14 01:44:35;;;;;;;;;;;12.40;99.90;;;;;;5111825;28;19931;-70
2021/09/14 01:47:01;;;;;;;;;;;12.40;99.90;;;;;;5111177;28;19916;-70
2021/09/14 01:49:27;;;;;;;;;;;12.30;99.90;;;;;;5111720;28;19919;-70
2021/09/14 01:51:52;;;;;;;;;;;12.20;99.90;;;;;;5111745;28;19914;-70
2021/09/14 01:54:17;;;;;;;;;;;12.30;99.90;;;;;;5111827;28;19911;-70
2021/09/14 01:56:43;;;;;;;;;;;12.20;99.90;;;;;;5111420;28;20364;-70
2021/09/14 01:59:10;;;;;;;;;;;12.20;99.90;;;;;;5111513;28;19954;-72
2021/09/14 02:01:39;;;;;;;;;;;12.20;99.90;;;;;;5111556;28;19911;-70
2021/09/14 02:04:20;;;;;;;;;;;12.20;99.90;;;;;;5111563;28;19915;-70
2021/09/14 02:06:59;;;;;;;;;;;12.20;99.90;;;;;;5111287;28;19946;-70
2021/09/14 02:40:13;;;;;;;;;;;12.10;99.90;;;;;;5091250;28;19954;-72
2021/09/14 02:45:07;;;;;;;;;;;12.10;99.90;;;;;;5094606;28;19908;-72
2021/09/14 03:01:03;;;;;;;;;;;11.90;99.90;;;;;;5114710;28;20380;-70
2021/09/14 03:03:29;;;;;;;;;;;11.90;99.90;;;;;;5114939;28;19939;-70
2021/09/14 03:05:54;;;;;;;;;;;11.90;99.90;;;;;;5114575;28;19912;-70
2021/09/14 03:08:20;;;;;;;;;;;11.90;99.90;;;;;;5114088;28;20006;-70
2021/09/14 03:10:45;;;;;;;;;;;12.00;99.90;;;;;;5102683;28;19908;-70
2021/09/14 03:13:11;;;;;;;;;;;12.00;99.90;;;;;;5114168;28;19952;-69
2021/09/14 03:15:37;;;;;;;;;;;12.10;99.90;;;;;;5114394;28;19908;-70
2021/09/14 03:18:02;;;;;;;;;;;12.00;99.90;;;;;;5113900;28;19908;-70
2021/09/14 03:20:28;;;;;;;;;;;12.10;99.90;;;;;;5114323;28;20400;-70
2021/09/14 03:22:53;;;;;;;;;;;12.10;99.90;;;;;;5115705;28;19955;-70
2021/09/14 03:25:18;;;;;;;;;;;12.10;99.90;;;;;;5115604;28;19908;-72
2021/09/14 03:27:44;;;;;;;;;;;12.10;99.90;;;;;;5115516;28;19915;-70
2021/09/14 03:30:10;;;;;;;;;;;12.10;99.90;;;;;;5115288;28;19953;-70
2021/09/14 03:32:35;;;;;;;;;;;12.00;99.90;;;;;;5115254;28;19908;-71
2021/09/14 03:35:01;;;;;;;;;;;12.00;99.90;;;;;;5115530;28;20364;-72
2021/09/14 03:37:26;;;;;;;;;;;12.10;99.90;;;;;;5113504;28;19919;-69
2021/09/14 03:39:52;;;;;;;;;;;12.10;99.90;;;;;;5102449;28;19961;-70
2021/09/14 03:42:17;;;;;;;;;;;12.10;99.90;;;;;;5113556;28;19908;-70
2021/09/14 03:44:43;;;;;;;;;;;12.00;99.90;;;;;;5113816;28;20288;-69
2021/09/14 03:47:08;;;;;;;;;;;12.10;99.90;;;;;;5113203;28;20011;-70
2021/09/14 03:49:33;;;;;;;;;;;12.10;99.90;;;;;;5113563;28;20257;-70
2021/09/14 03:51:59;;;;;;;;;;;12.20;99.90;;;;;;5112288;28;19992;-72
2021/09/14 03:54:24;;;;;;;;;;;12.10;99.90;;;;;;5113633;28;19908;-69
2021/09/14 03:56:50;;;;;;;;;;;12.20;99.90;;;;;;5113056;28;20368;-70
2021/09/14 03:59:17;;;;;;;;;;;12.20;99.90;;;;;;5113484;28;19915;-70
2021/09/14 04:01:48;;;;;;;;;;;12.10;99.90;;;;;;5113326;28;19994;-69
2021/09/14 04:04:44;;;;;;;;;;;12.00;99.90;;;;;;5113422;28;20419;-70
2021/09/14 04:09:36;;;;;;;;;;;12.20;99.90;;;;;;5103766;28;19909;-69
2021/09/14 04:12:02;;;;;;;;;;;12.20;99.90;;;;;;5111811;28;19915;-71
2021/09/14 04:14:29;;;;;;;;;;;12.20;99.90;;;;;;5113001;28;19908;-69
2021/09/14 04:16:55;;;;;;;;;;;12.20;99.90;;;;;;5112692;28;19912;-69
2021/09/14 04:19:20;;;;;;;;;;;12.20;99.90;;;;;;5113115;28;20011;-70
2021/09/14 04:21:46;;;;;;;;;;;12.10;99.90;;;;;;5112948;28;19907;-71
2021/09/14 04:24:13;;;;;;;;;;;12.00;99.90;;;;;;5113029;28;20002;-71
2021/09/14 04:26:38;;;;;;;;;;;11.90;99.90;;;;;;5112586;28;19998;-71
2021/09/14 04:29:04;;;;;;;;;;;12.00;99.90;;;;;;5112800;28;19943;-69
2021/09/14 04:31:29;;;;;;;;;;;12.00;99.90;;;;;;5112764;28;19908;-70
2021/09/14 04:33:55;;;;;;;;;;;11.90;99.90;;;;;;5112734;28;19998;-69
2021/09/14 04:36:20;;;;;;;;;;;11.80;99.90;;;;;;5112193;28;19957;-72
2021/09/14 04:38:46;;;;;;;;;;;11.80;99.90;;;;;;5112798;28;20276;-69
2021/09/14 04:41:11;;;;;;;;;;;11.70;99.90;;;;;;5100808;28;19987;-70
2021/09/14 04:43:37;;;;;;;;;;;11.80;99.90;;;;;;5112334;28;20383;-69
2021/09/14 04:46:03;;;;;;;;;;;11.90;99.90;;;;;;5112058;28;19937;-69
2021/09/14 04:48:28;;;;;;;;;;;11.80;99.90;;;;;;5112588;28;20177;-69
2021/09/14 04:50:54;;;;;;;;;;;11.70;99.90;;;;;;5112675;28;19954;-69
2021/09/14 04:53:19;;;;;;;;;;;11.70;99.90;;;;;;5112078;28;19908;-70
2021/09/14 04:55:44;;;;;;;;;;;11.70;99.90;;;;;;5112951;28;19908;-71
2021/09/14 04:58:10;;;;;;;;;;;11.80;99.90;;;;;;5111934;28;20323;-70
2021/09/14 05:00:35;;;;;;;;;;;11.70;99.90;;;;;;5112733;28;19912;-69
2021/09/14 05:03:01;;;;;;;;;;;11.70;99.90;;;;;;5112535;28;19908;-70
2021/09/14 05:05:26;;;;;;;;;;;11.60;99.90;;;;;;5112487;28;19912;-69
2021/09/14 05:07:52;;;;;;;;;;;11.70;99.90;;;;;;5111850;28;19908;-69
2021/09/14 05:10:17;;;;;;;;;;;11.90;99.90;;;;;;5100450;28;19907;-69
2021/09/14 05:12:43;;;;;;;;;;;11.80;99.90;;;;;;5112079;28;19907;-71
2021/09/14 05:15:09;;;;;;;;;;;11.80;99.90;;;;;;5112057;28;19955;-69
2021/09/14 05:17:34;;;;;;;;;;;11.80;99.90;;;;;;5111454;28;19923;-69
2021/09/14 05:20:00;;;;;;;;;;;11.80;99.90;;;;;;5111949;28;19976;-70
2021/09/14 05:22:31;;;;;;;;;;;11.90;99.90;;;;;;5112197;28;19986;-70
2021/09/14 05:24:57;;;;;;;;;;;11.80;99.90;;;;;;5111985;28;19950;-69
2021/09/14 05:27:23;;;;;;;;;;;11.90;99.90;;;;;;5111383;28;20316;-70
2021/09/14 05:29:48;;;;;;;;;;;11.90;99.90;;;;;;5112025;28;20372;-70
2021/09/14 05:32:17;;;;;;;;;;;11.90;99.90;;;;;;5111994;28;19951;-71
2021/09/14 05:34:43;;;;;;;;;;;12.00;99.90;;;;;;5111695;28;19961;-69
2021/09/14 05:37:08;;;;;;;;;;;12.00;99.90;;;;;;5111384;28;19912;-70
2021/09/14 05:39:34;;;;;;;;;;;12.00;99.90;;;;;;5101942;28;19919;-70
2021/09/14 05:41:59;;;;;;;;;;;12.00;99.90;;;;;;5109599;28;19907;-69
2021/09/14 05:44:25;;;;;;;;;;;12.20;99.90;;;;;;5111752;28;19908;-69
2021/09/14 05:46:50;;;;;;;;;;;12.30;99.90;;;;;;5111118;28;19923;-70
2021/09/14 05:49:16;;;;;;;;;;;12.30;99.90;;;;;;5111632;28;19950;-72
2021/09/14 05:51:41;;;;;;;;;;;12.30;99.90;;;;;;5111545;28;19919;-70
2021/09/14 05:54:07;;;;;;;;;;;12.40;99.90;;;;;;5111652;28;19957;-70
2021/09/14 05:56:32;;;;;;;;;;;12.40;99.90;;;;;;5110871;28;19919;-70
2021/09/14 05:58:59;;;;;;;;;;;12.40;99.90;;;;;;5111595;28;19995;-69
2021/09/14 06:01:25;;;;;;;;;;;12.40;99.90;;;;;;5111491;28;20287;-70
2021/09/14 06:03:51;;;;;;;;;;;12.50;99.90;;;;;;5111479;28;19911;-70
2021/09/14 06:06:16;;;;;;;;;;;12.60;99.90;;;;;;5111129;28;19961;-72
2021/09/14 06:08:42;;;;;;;;;;;12.70;99.90;;;;;;5111503;28;20012;-69
2021/09/14 06:11:07;;;;;;;;;;;12.70;99.90;;;;;;5105279;28;20014;-70
2021/09/14 06:13:33;;;;;;;;;;;12.80;99.90;;;;;;5111243;28;20437;-70
2021/09/14 06:15:58;;;;;;;;;;;12.90;99.90;;;;;;5114077;28;19955;-70
2021/09/14 06:18:24;;;;;;;;;;;13.00;99.90;;;;;;5115051;28;19911;-70
2021/09/14 06:20:49;;;;;;;;;;;13.10;99.90;;;;;;5115368;28;20245;-70
2021/09/14 06:23:15;;;;;;;;;;;13.20;99.90;;;;;;5115351;28;20003;-71
2021/09/14 06:25:40;;;;;;;;;;;13.30;99.90;;;;;;5115105;28;19960;-69
2021/09/14 06:28:06;;;;;;;;;;;13.50;99.90;;;;;;5114901;28;20369;-70
2021/09/14 06:30:31;;;;;;;;;;;13.60;99.90;;;;;;5115152;28;20357;-70
2021/09/14 06:32:57;;;;;;;;;;;13.70;99.90;;;;;;5115329;28;19943;-70
2021/09/14 06:35:22;;;;;;;;;;;13.90;99.90;;;;;;5115227;28;20444;-70
2021/09/14 06:37:48;;;;;;;;;;;14.00;99.90;;;;;;5114162;28;19912;-70
2021/09/14 06:40:13;;;;;;;;;;;14.20;99.90;;;;;;5104289;28;19912;-72
2021/09/14 06:42:39;;;;;;;;;;;14.40;99.90;;;;;;5093472;28;19945;-69
2021/09/14 06:45:05;;;;;;;;;;;14.70;99.90;;;;;;5094586;28;20360;-70
2021/09/14 06:47:30;;;;;;;;;;;14.90;99.90;;;;;;5111306;28;19998;-70
2021/09/14 06:49:56;;;;;;;;;;;15.00;99.90;;;;;;5114851;28;19908;-71
2021/09/14 06:52:21;;;;;;;;;;;15.10;99.90;;;;;;5103544;28;19908;-69
2021/09/14 06:54:46;;;;;;;;;;;15.30;99.90;;;;;;5104555;28;20429;-70
2021/09/14 06:57:12;;;;;;;;;;;15.40;99.90;;;;;;5093427;28;19912;-70
2021/09/14 06:59:37;;;;;;;;;;;15.50;99.90;;;;;;5093696;28;20010;-70
2021/09/14 07:02:03;;;;;;;;;;;15.70;99.90;;;;;;5113393;28;19918;-70
2021/09/14 07:04:28;;;;;;;;;;;15.70;99.90;;;;;;5100551;28;19948;-70
2021/09/14 07:06:54;;;;;;;;;;;15.80;99.90;;;;;;5080476;28;19912;-72
2021/09/14 07:09:20;;;;;;;;;;;15.90;99.90;;;;;;5085226;28;19912;-70
2021/09/14 07:11:46;;;;;;;;;;;16.00;99.90;;;;;;5106991;28;19908;-70
2021/09/14 07:14:11;;;;;;;;;;;16.10;99.90;;;;;;5105840;28;20322;-71
2021/09/14 07:16:37;;;;;;;;;;;16.20;99.90;;;;;;5093186;28;19912;-70
2021/09/14 07:19:03;;;;;;;;;;;16.30;99.90;;;;;;5093810;28;19908;-70
2021/09/14 07:21:28;;;;;;;;;;;16.50;99.90;;;;;;5092829;28;19908;-72
2021/09/14 07:23:54;;;;;;;;;;;16.60;99.90;;;;;;5102699;28;19911;-70
2021/09/14 07:26:19;;;;;;;;;;;16.80;99.90;;;;;;5112705;28;20231;-70
2021/09/14 07:28:45;;;;;;;;;;;16.90;99.90;;;;;;5113627;28;19907;-71
2021/09/14 07:31:11;;;;;;;;;;;17.00;99.90;;;;;;5113577;28;19992;-72
2021/09/14 07:33:37;;;;;;;;;;;17.20;99.90;;;;;;5112627;28;19907;-70
2021/09/14 07:36:02;;;;;;;;;;;17.40;99.90;;;;;;5112813;28;20383;-72
2021/09/14 07:38:28;;;;;;;;;;;18.00;99.90;;;;;;5112745;28;19908;-72
2021/09/14 07:40:54;;;;;;;;;;;18.50;99.90;;;;;;5103005;28;20004;-72
2021/09/14 07:43:19;;;;;;;;;;;18.60;99.90;;;;;;5112490;28;19934;-72
2021/09/14 07:45:44;;;;;;;;;;;18.60;99.90;;;;;;5088952;28;20331;-72
2021/09/14 07:48:10;;;;;;;;;;;18.60;99.90;;;;;;5109735;28;20002;-72
2021/09/14 07:50:35;;;;;;;;;;;19.80;99.90;;;;;;5107247;28;20012;-72
2021/09/14 07:53:01;;;;;;;;;;;21.60;99.90;;;;;;5099997;28;19954;-71
2021/09/14 07:55:27;;;;;;;;;;;22.80;99.90;;;;;;5093461;28;20276;-71
2021/09/14 07:57:53;;;;;;;;;;;23.00;99.90;;;;;;5110687;28;19915;-72
2021/09/14 08:00:19;;;;;;;;;;;23.30;99.90;;;;;;5110722;28;19954;-72
2021/09/14 08:02:54;;;;;;;;;;;23.80;99.90;;;;;;5091750;28;19951;-73
2021/09/14 08:05:20;;;;;;;;;;;24.50;99.90;;;;;;5092642;28;19954;-72
2021/09/14 08:07:45;;;;;;;;;;;24.40;99.90;;;;;;5105370;28;19908;-71
2021/09/14 08:10:11;;;;;;;;;;;24.70;99.90;;;;;;5103258;28;19969;-73
2021/09/14 08:12:36;;;;;;;;;;;25.40;99.90;;;;;;5108403;28;19907;-73
2021/09/14 08:15:02;;;;;;;;;;;26.00;99.90;;;;;;5113098;28;20002;-72
2021/09/14 08:17:27;;;;;;;;;;;26.00;99.90;;;;;;5112453;28;19912;-71
2021/09/14 08:19:53;;;;;;;;;;;26.70;99.90;;;;;;5112909;28;20353;-73
2021/09/14 08:22:19;;;;;;;;;;;26.40;99.90;;;;;;5104084;28;19908;-72
2021/09/14 08:24:45;;;;;;;;;;;26.80;99.90;;;;;;5092780;28;19912;-73
2021/09/14 08:27:10;;;;;;;;;;;27.50;99.90;;;;;;5092078;28;20285;-72
2021/09/14 08:29:36;;;;;;;;;;;27.60;99.90;;;;;;5092358;28;20361;-72
2021/09/14 08:32:01;;;;;;;;;;;27.60;99.90;;;;;;5092303;28;19908;-72
2021/09/14 08:34:27;;;;;;;;;;;28.20;99.90;;;;;;5092401;28;19915;-72
2021/09/14 08:36:52;;;;;;;;;;;28.00;99.90;;;;;;5091399;28;19912;-72
2021/09/14 08:39:18;;;;;;;;;;;28.90;99.80;;;;;;5089264;28;19923;-72
2021/09/14 08:41:44;;;;;;;;;;;28.40;99.90;;;;;;5084427;28;20498;-72
2021/09/14 08:44:10;;;;;;;;;;;28.80;99.90;;;;;;5091315;28;19912;-73
2021/09/14 08:46:35;;;;;;;;;;;29.10;98.90;;;;;;5101425;28;19916;-73
2021/09/14 08:49:01;;;;;;;;;;;28.90;98.70;;;;;;5112458;28;19908;-73
2021/09/14 08:51:27;;;;;;;;;;;28.90;98.70;;;;;;5110715;28;19947;-73
2021/09/14 08:53:52;;;;;;;;;;;29.80;97.80;;;;;;5089681;28;19905;-73
2021/09/14 08:56:18;;;;;;;;;;;30.00;97.00;;;;;;5094865;28;19912;-73
2021/09/14 08:58:54;;;;;;;;;;;29.70;96.10;;;;;;5103089;28;19912;-73
2021/09/14 09:01:21;;;;;;;;;;;29.90;97.00;;;;;;5101210;28;19908;-73
2021/09/14 09:03:55;;;;;;;;;;;30.30;96.60;;;;;;5099886;28;19954;-73
2021/09/14 09:06:28;;;;;;;;;;;30.00;95.80;;;;;;5110549;28;19908;-73
2021/09/14 09:08:54;;;;;;;;;;;30.00;96.10;;;;;;5106827;28;20045;-73
2021/09/14 09:11:20;;;;;;;;;;;31.00;96.10;;;;;;5084539;28;20007;-73
2021/09/14 09:13:45;;;;;;;;;;;31.30;94.10;;;;;;5105846;28;19908;-72
2021/09/14 09:16:21;;;;;;;;;;;31.60;93.90;;;;;;5094006;28;19919;-73
2021/09/14 09:18:50;;;;;;;;;;;31.90;94.10;;;;;;5094882;28;19919;-73
2021/09/14 09:21:15;;;;;;;;;;;32.10;93.70;;;;;;5088977;28;19961;-72
2021/09/14 09:23:41;;;;;;;;;;;31.90;93.40;;;;;;5092604;28;19908;-72
2021/09/14 09:26:08;;;;;;;;;;;32.00;92.50;;;;;;5099205;28;19907;-73
2021/09/14 09:28:34;;;;;;;;;;;32.30;92.70;;;;;;5102580;28;20506;-73
2021/09/14 09:31:00;;;;;;;;;;;32.30;92.10;;;;;;5108351;28;20170;-73
2021/09/14 09:33:30;;;;;;;;;;;32.30;92.10;;;;;;5107038;28;19912;-73
2021/09/14 09:36:03;;;;;;;;;;;32.80;92.20;;;;;;5081139;28;19908;-73
2021/09/14 09:38:29;;;;;;;;;;;32.90;90.40;;;;;;5097578;28;19993;-73
2021/09/14 09:40:54;;;;;;;;;;;32.70;90.90;;;;;;5096816;28;19977;-73
2021/09/14 09:43:32;;;;;;;;;;;32.30;90.30;;;;;;5099904;28;20085;-73
2021/09/14 09:46:05;;;;;;;;;;;31.80;91.60;;;;;;5089193;28;19916;-71
2021/09/14 09:48:31;;;;;;;;;;;31.70;90.80;;;;;;5098183;28;19958;-73
2021/09/14 09:50:56;;;;;;;;;;;32.10;90.90;;;;;;5096445;28;19908;-73
2021/09/14 09:53:22;;;;;;;;;;;32.00;91.10;;;;;;5094612;28;19931;-73
2021/09/14 09:55:48;;;;;;;;;;;32.00;90.70;;;;;;5100735;28;20327;-72
2021/09/14 09:58:14;;;;;;;;;;;32.70;90.10;;;;;;5105123;28;19912;-73
2021/09/14 10:00:40;;;;;;;;;;;33.10;90.30;;;;;;5107701;28;19912;-73
2021/09/14 10:03:11;;;;;;;;;;;33.10;89.00;;;;;;5096186;28;19914;-73
2021/09/14 10:05:39;;;;;;;;;;;33.60;90.00;;;;;;5107375;28;19961;-73
2021/09/14 10:08:08;;;;;;;;;;;32.90;90.60;;;;;;5105670;28;19912;-72
2021/09/14 10:10:35;;;;;;;;;;;33.20;89.70;;;;;;5094901;28;20413;-73
2021/09/14 10:13:01;;;;;;;;;;;33.10;88.30;;;;;;5099956;28;19959;-72
2021/09/14 10:15:35;;;;;;;;;;;32.30;90.10;;;;;;5093722;28;20261;-72
2021/09/14 10:18:01;;;;;;;;;;;31.90;90.80;;;;;;5096442;28;20387;-72
2021/09/14 10:20:35;;;;;;;;;;;31.70;90.30;;;;;;5094784;28;19908;-73
2021/09/14 10:23:04;;;;;;;;;;;31.60;90.90;;;;;;5093211;28;19924;-71
2021/09/14 10:25:29;;;;;;;;;;;31.90;91.10;;;;;;5094683;28;19911;-73
2021/09/14 10:28:05;;;;;;;;;;;31.90;91.60;;;;;;5094392;28;19908;-72
2021/09/14 10:30:30;;;;;;;;;;;32.30;91.40;;;;;;5094818;28;19912;-72
2021/09/14 10:32:56;;;;;;;;;;;32.10;90.50;;;;;;5094745;28;19995;-72
2021/09/14 10:35:47;;;;;;;;;;;32.60;89.60;;;;;;5094605;28;19915;-72
2021/09/14 10:38:14;;;;;;;;;;;31.80;90.10;;;;;;5095257;28;19995;-71
2021/09/14 10:40:43;;;;;;;;;;;31.20;90.90;;;;;;5096081;28;19970;-72
2021/09/14 10:43:18;;;;;;;;;;;31.80;90.40;;;;;;5092444;28;19908;-72
2021/09/14 10:45:44;;;;;;;;;;;32.60;89.10;;;;;;5096447;28;20361;-72
2021/09/14 10:48:20;;;;;;;;;;;33.00;87.20;;;;;;5114189;28;19908;-71
2021/09/14 10:50:45;;;;;;;;;;;33.40;88.60;;;;;;5106332;28;20221;-72
2021/09/14 10:53:20;;;;;;;;;;;31.90;90.70;;;;;;5102357;28;19912;-72
2021/09/14 10:55:50;;;;;;;;;;;30.90;90.80;;;;;;5106929;28;20287;-71
2021/09/14 10:58:15;;;;;;;;;;;31.50;91.50;;;;;;5081265;28;20479;-72
2021/09/14 11:00:42;;;;;;;;;;;33.10;87.20;;;;;;5100388;28;20321;-72
2021/09/14 11:03:10;;;;;;;;;;;33.80;83.50;;;;;;5114558;28;19907;-72
2021/09/14 11:05:36;;;;;;;;;;;32.80;87.70;;;;;;5114417;28;19908;-72
2021/09/14 11:08:03;;;;;;;;;;;32.10;86.50;;;;;;5113915;28;19961;-72
2021/09/14 11:10:33;;;;;;;;;;;31.50;90.50;;;;;;5102806;28;20355;-72
2021/09/14 11:12:59;;;;;;;;;;;31.40;90.00;;;;;;5105341;28;20390;-72
2021/09/14 11:15:25;;;;;;;;;;;30.20;90.50;;;;;;5106266;28;19950;-72
2021/09/14 11:17:50;;;;;;;;;;;29.90;91.80;;;;;;5113584;28;19966;-72
2021/09/14 11:20:20;;;;;;;;;;;31.40;90.50;;;;;;5114311;28;19946;-73
2021/09/14 11:22:46;;;;;;;;;;;32.70;87.00;;;;;;5111153;28;19907;-72
2021/09/14 11:25:13;;;;;;;;;;;32.40;84.90;;;;;;5113402;28;19987;-72
2021/09/14 11:27:40;;;;;;;;;;;31.60;88.20;;;;;;5113429;28;19907;-72
2021/09/14 11:30:06;;;;;;;;;;;31.30;90.40;;;;;;5114096;28;19934;-72
2021/09/14 11:32:31;;;;;;;;;;;32.60;86.00;;;;;;5113916;28;20364;-72
2021/09/14 11:34:57;;;;;;;;;;;33.00;86.70;;;;;;5113840;28;19907;-72
2021/09/14 11:37:26;;;;;;;;;;;31.80;89.00;;;;;;5113365;28;19965;-72
2021/09/14 11:39:51;;;;;;;;;;;29.70;90.50;;;;;;5102135;28;19947;-72
2021/09/14 11:42:17;;;;;;;;;;;28.40;93.10;;;;;;5113154;28;19947;-72
2021/09/14 11:44:43;;;;;;;;;;;27.70;95.10;;;;;;5113690;28;20375;-72
2021/09/14 11:47:09;;;;;;;;;;;27.40;95.60;;;;;;5113054;28;19923;-72
2021/09/14 11:49:35;;;;;;;;;;;27.00;96.00;;;;;;5113832;28;19957;-73
2021/09/14 11:52:01;;;;;;;;;;;27.30;96.80;;;;;;5113873;28;19915;-72
2021/09/14 11:54:32;;;;;;;;;;;27.30;95.80;;;;;;5103282;28;20445;-72
2021/09/14 11:56:57;;;;;;;;;;;27.80;95.50;;;;;;5112642;28;19912;-72
2021/09/14 11:59:23;;;;;;;;;;;27.80;96.60;;;;;;5113713;28;19961;-72
2021/09/14 12:01:49;;;;;;;;;;;27.50;96.40;;;;;;5085198;28;19919;-72
2021/09/14 12:04:15;;;;;;;;;;;27.40;97.80;;;;;;5113458;28;19915;-72
2021/09/14 12:06:48;;;;;;;;;;;27.20;96.40;;;;;;5113508;28;20300;-72
2021/09/14 12:09:16;;;;;;;;;;;27.00;96.50;;;;;;5108045;28;19953;-72
2021/09/14 12:11:42;;;;;;;;;;;27.00;96.20;;;;;;5104076;28;20386;-72
2021/09/14 12:14:09;;;;;;;;;;;26.90;97.60;;;;;;5113039;28;19907;-72
2021/09/14 12:16:44;;;;;;;;;;;27.00;98.40;;;;;;5094907;28;19915;-72
2021/09/14 12:19:11;;;;;;;;;;;26.80;97.50;;;;;;5101023;28;20284;-72
2021/09/14 12:21:36;;;;;;;;;;;26.70;98.00;;;;;;5078853;28;19955;-72
2021/09/14 12:24:02;;;;;;;;;;;26.80;97.20;;;;;;5074378;28;19954;-71
2021/09/14 12:26:28;;;;;;;;;;;26.80;97.10;;;;;;5086531;28;19912;-72
2021/09/14 12:28:55;;;;;;;;;;;26.80;98.60;;;;;;5094113;28;20369;-71
2021/09/14 12:31:21;;;;;;;;;;;26.90;96.00;;;;;;5100516;28;19912;-72
2021/09/14 12:33:47;;;;;;;;;;;27.10;97.40;;;;;;5084888;28;19912;-72
2021/09/14 12:36:12;;;;;;;;;;;27.20;97.60;;;;;;5078994;28;19934;-71
2021/09/14 12:38:38;;;;;;;;;;;27.40;97.00;;;;;;5105650;28;19923;-72
2021/09/14 12:41:03;;;;;;;;;;;27.60;96.90;;;;;;5101406;28;19908;-72
2021/09/14 12:43:29;;;;;;;;;;;27.70;95.70;;;;;;5107020;28;19907;-73
2021/09/14 12:45:54;;;;;;;;;;;27.60;94.20;;;;;;5112346;28;19923;-72
2021/09/14 12:48:20;;;;;;;;;;;27.60;97.00;;;;;;5102572;28;20384;-72
2021/09/14 12:50:45;;;;;;;;;;;27.20;96.60;;;;;;5071981;28;20357;-72
2021/09/14 12:53:11;;;;;;;;;;;27.00;95.80;;;;;;5081704;28;19952;-72
2021/09/14 12:55:37;;;;;;;;;;;26.70;96.30;;;;;;5111915;28;20249;-72
2021/09/14 12:58:04;;;;;;;;;;;26.40;96.20;;;;;;5111824;28;20356;-72
2021/09/14 13:00:29;;;;;;;;;;;26.60;97.40;;;;;;5112048;28;19908;-72
2021/09/14 13:02:55;;;;;;;;;;;26.50;95.20;;;;;;5092639;28;19934;-72
2021/09/14 13:05:20;;;;;;;;;;;26.20;97.80;;;;;;5100135;28;20391;-72
2021/09/14 13:07:46;;;;;;;;;;;26.10;98.40;;;;;;5076097;28;19913;-72
2021/09/14 13:10:13;;;;;;;;;;;26.20;97.80;;;;;;5079229;28;19912;-71
2021/09/14 13:12:45;;;;;;;;;;;26.50;98.20;;;;;;5094396;28;19926;-72
2021/09/14 13:17:55;;;;;;;;;;;26.30;98.00;;;;;;5090378;28;19966;-71
2021/09/14 13:20:21;;;;;;;;;;;26.30;96.60;;;;;;5100546;28;20368;-72
2021/09/14 13:22:46;;;;;;;;;;;26.40;96.60;;;;;;5101040;28;19911;-72
2021/09/14 13:25:12;;;;;;;;;;;26.30;98.90;;;;;;5086433;28;19956;-72
2021/09/14 13:27:37;;;;;;;;;;;26.80;98.00;;;;;;5070456;28;19909;-71
2021/09/14 13:30:03;;;;;;;;;;;26.80;97.10;;;;;;5071261;28;19908;-72
2021/09/14 13:32:28;;;;;;;;;;;26.60;96.40;;;;;;5083426;28;19991;-72
2021/09/14 13:34:54;;;;;;;;;;;26.70;98.80;;;;;;5091826;28;19916;-72
2021/09/14 13:37:20;;;;;;;;;;;27.00;98.30;;;;;;5085646;28;19912;-71
2021/09/14 13:39:45;;;;;;;;;;;27.00;97.70;;;;;;5089422;28;19908;-72
2021/09/14 13:42:13;;;;;;;;;;;27.00;96.90;;;;;;5105518;28;19908;-72
2021/09/14 13:47:06;;;;;;;;;;;26.80;97.10;;;;;;5080627;28;19920;-72
2021/09/14 13:49:32;;;;;;;;;;;26.60;98.10;;;;;;5089701;28;20091;-72
2021/09/14 13:51:57;;;;;;;;;;;26.50;97.30;;;;;;5102840;28;19908;-72
2021/09/14 13:54:23;;;;;;;;;;;26.50;96.80;;;;;;5090787;28;19913;-72
2021/09/14 13:56:48;;;;;;;;;;;26.70;97.50;;;;;;5090174;28;19923;-72
2021/09/14 13:59:14;;;;;;;;;;;27.00;98.00;;;;;;5088402;28;19920;-72
2021/09/14 14:01:40;;;;;;;;;;;27.20;97.90;;;;;;5088806;28;19912;-72
2021/09/14 14:04:05;;;;;;;;;;;27.30;97.30;;;;;;5087899;28;19912;-72
2021/09/14 14:06:31;;;;;;;;;;;27.20;96.20;;;;;;5090077;28;19922;-72
2021/09/14 14:08:56;;;;;;;;;;;27.40;98.00;;;;;;5087178;28;19916;-72
2021/09/14 14:11:22;;;;;;;;;;;27.40;96.40;;;;;;5087706;28;19951;-72
2021/09/14 14:13:48;;;;;;;;;;;27.20;98.40;;;;;;5090310;28;19923;-72
2021/09/14 14:16:13;;;;;;;;;;;26.90;98.10;;;;;;5089793;28;20286;-72
2021/09/14 14:18:39;;;;;;;;;;;26.50;99.50;;;;;;5089937;28;19962;-72
2021/09/14 14:21:05;;;;;;;;;;;26.30;99.90;;;;;;5090700;28;19958;-72
2021/09/14 14:23:30;;;;;;;;;;;26.00;99.90;;;;;;5091096;28;20276;-72
2021/09/14 14:25:56;;;;;;;;;;;26.30;99.90;;;;;;5091987;28;19950;-72
2021/09/14 14:28:21;;;;;;;;;;;26.40;99.90;;;;;;5090696;28;19912;-72
2021/09/14 14:30:47;;;;;;;;;;;26.00;99.90;;;;;;5095972;28;19908;-72
2021/09/14 14:33:13;;;;;;;;;;;25.70;99.90;;;;;;5105060;28;19908;-71
2021/09/14 14:35:38;;;;;;;;;;;25.40;99.90;;;;;;5091354;28;19959;-72
2021/09/14 14:38:04;;;;;;;;;;;25.20;99.90;;;;;;5095945;28;19926;-72
2021/09/14 14:40:29;;;;;;;;;;;25.20;99.90;;;;;;5095003;28;19908;-72
2021/09/14 14:42:55;;;;;;;;;;;25.20;99.90;;;;;;5113475;28;19946;-72
2021/09/14 14:45:21;;;;;;;;;;;25.30;99.90;;;;;;5100355;28;19908;-72
2021/09/14 14:47:49;;;;;;;;;;;25.10;99.90;;;;;;5101839;28;19915;-72
2021/09/14 14:50:16;;;;;;;;;;;25.00;99.90;;;;;;5110124;28;19912;-72
2021/09/14 14:52:41;;;;;;;;;;;25.00;99.90;;;;;;5093843;28;19908;-71
2021/09/14 14:55:07;;;;;;;;;;;25.20;99.90;;;;;;5094463;28;19915;-72
2021/09/14 14:57:33;;;;;;;;;;;25.30;99.90;;;;;;5090928;28;19912;-75
2021/09/14 14:59:58;;;;;;;;;;;25.10;99.90;;;;;;5091821;28;20361;-72
2021/09/14 15:02:24;;;;;;;;;;;24.90;99.90;;;;;;5091087;28;19923;-71
2021/09/14 15:04:49;;;;;;;;;;;24.90;99.90;;;;;;5101263;28;19981;-72
2021/09/14 15:07:15;;;;;;;;;;;24.90;99.90;;;;;;5100486;28;19919;-72
2021/09/14 15:09:40;;;;;;;;;;;24.90;99.90;;;;;;5092901;28;19951;-72